Time;durP1;ratioP1;P1;durP2;ratioP2;P2;SDS_P1;SDS_P2;PMS_P1;PMS_P2;Temp;Humidity;BMP_temperature;BMP_pressure;BME280_temperature;BME280_humidity;BME280_pressure;Samples;Min_cycle;Max_cycle;Signal;HPM_P1;HPM_P2
2022/03/18 00:00:57;;;;;;;22.75;7.35;;;;;;;;;;5005330;28;20029;-74
2022/03/18 00:03:23;;;;;;;32.15;11.85;;;;;;;;;;5009018;28;20420;-75
2022/03/18 00:05:49;;;;;;;34.17;13.25;;;;;;;;;;5008525;28;20146;-75
2022/03/18 00:08:15;;;;;;;21.90;9.57;;;;;;;;;;5009237;28;20022;-75
2022/03/18 00:10:42;;;;;;;20.23;7.88;;;;;;;;;;5008508;28;20480;-75
2022/03/18 00:13:08;;;;;;;20.58;8.52;;;;;;;;;;5006311;28;20036;-75
2022/03/18 00:15:34;;;;;;;20.80;9.73;;;;;;;;;;5009253;28;20196;-75
2022/03/18 00:18:00;;;;;;;17.55;7.75;;;;;;;;;;5008763;28;20419;-74
2022/03/18 00:20:26;;;;;;;19.20;7.15;;;;;;;;;;5008260;28;20041;-75
2022/03/18 00:22:52;;;;;;;16.25;6.95;;;;;;;;;;5007038;28;20037;-75
2022/03/18 00:25:18;;;;;;;22.52;6.05;;;;;;;;;;5009776;28;20026;-75
2022/03/18 00:27:46;;;;;;;25.23;6.22;;;;;;;;;;5009126;28;20453;-74
2022/03/18 00:30:13;;;;;;;15.82;6.00;;;;;;;;;;5008485;28;20057;-75
2022/03/18 00:32:40;;;;;;;20.85;6.00;;;;;;;;;;5008472;28;20049;-74
2022/03/18 00:35:10;;;;;;;15.75;6.00;;;;;;;;;;5007957;28;20085;-74
2022/03/18 00:37:36;;;;;;;16.33;6.57;;;;;;;;;;5010038;28;20049;-75
2022/03/18 00:40:03;;;;;;;16.98;6.45;;;;;;;;;;5008177;28;20046;-74
2022/03/18 00:42:31;;;;;;;18.27;5.93;;;;;;;;;;5008613;28;20160;-75
2022/03/18 00:44:58;;;;;;;14.55;6.18;;;;;;;;;;5007057;28;20483;-74
2022/03/18 00:52:53;;;;;;;22.88;6.22;;;;;;;;;;5007244;28;20048;-74
2022/03/18 00:55:19;;;;;;;16.00;6.43;;;;;;;;;;5007067;28;20499;-74
2022/03/18 00:57:45;;;;;;;18.60;6.82;;;;;;;;;;5008712;28;20022;-75
2022/03/18 01:00:11;;;;;;;24.90;7.25;;;;;;;;;;5008420;28;20049;-75
2022/03/18 01:02:37;;;;;;;23.33;8.10;;;;;;;;;;4989644;28;20033;-75
2022/03/18 01:05:03;;;;;;;22.10;8.60;;;;;;;;;;5008424;28;20439;-75
2022/03/18 01:07:30;;;;;;;21.45;7.75;;;;;;;;;;5008006;28;20064;-75
2022/03/18 01:09:56;;;;;;;25.17;8.52;;;;;;;;;;5008158;28;20045;-75
2022/03/18 01:12:22;;;;;;;18.58;7.65;;;;;;;;;;5009069;28;20045;-74
2022/03/18 01:14:49;;;;;;;20.83;7.00;;;;;;;;;;4991253;28;20030;-74
2022/03/18 01:17:15;;;;;;;13.20;6.20;;;;;;;;;;5008611;28;20029;-74
2022/03/18 01:19:41;;;;;;;17.23;6.18;;;;;;;;;;5008376;28;20030;-75
2022/03/18 01:22:10;;;;;;;13.40;5.88;;;;;;;;;;5008555;28;20065;-75
2022/03/18 01:24:39;;;;;;;13.85;6.68;;;;;;;;;;5005612;28;20566;-75
2022/03/18 01:27:05;;;;;;;16.48;5.93;;;;;;;;;;5008986;28;20060;-74
2022/03/18 01:29:31;;;;;;;17.95;6.35;;;;;;;;;;5009053;28;20480;-75
2022/03/18 01:31:58;;;;;;;18.95;6.40;;;;;;;;;;5010441;28;20511;-75
2022/03/18 01:34:24;;;;;;;13.48;5.45;;;;;;;;;;5011311;28;20033;-75
2022/03/18 01:36:50;;;;;;;26.42;6.75;;;;;;;;;;5010641;28;20038;-75
2022/03/18 01:39:16;;;;;;;13.27;4.90;;;;;;;;;;5008087;28;20030;-75
2022/03/18 01:41:43;;;;;;;12.43;5.45;;;;;;;;;;5010858;28;20029;-75
2022/03/18 01:44:12;;;;;;;19.55;6.18;;;;;;;;;;5012184;28;20034;-75
2022/03/18 01:46:39;;;;;;;12.82;5.70;;;;;;;;;;5010935;28;20026;-75
2022/03/18 01:49:06;;;;;;;22.20;5.38;;;;;;;;;;5011873;28;20476;-75
2022/03/18 01:51:33;;;;;;;20.65;5.65;;;;;;;;;;5010202;28;20034;-75
2022/03/18 01:56:44;;;;;;;12.13;5.38;;;;;;;;;;5011518;28;20154;-75
2022/03/18 01:59:13;;;;;;;12.63;5.50;;;;;;;;;;5010360;28;20014;-75
2022/03/18 02:01:39;;;;;;;11.57;4.63;;;;;;;;;;5014036;28;20093;-76
2022/03/18 02:04:05;;;;;;;9.38;5.18;;;;;;;;;;5017843;28;20412;-76
2022/03/18 02:06:32;;;;;;;15.65;5.55;;;;;;;;;;5015744;28;20076;-77
2022/03/18 02:08:58;;;;;;;9.10;4.72;;;;;;;;;;5011972;28;20037;-76
2022/03/18 02:11:25;;;;;;;16.67;5.15;;;;;;;;;;5011078;28;20065;-76
2022/03/18 02:13:52;;;;;;;11.50;4.47;;;;;;;;;;5011713;28;20030;-75
2022/03/18 02:16:18;;;;;;;14.43;4.78;;;;;;;;;;5008208;28;20022;-75
2022/03/18 02:18:44;;;;;;;12.93;4.80;;;;;;;;;;5007682;28;20421;-75
2022/03/18 02:21:13;;;;;;;13.60;4.78;;;;;;;;;;5009682;28;20019;-75
2022/03/18 02:23:40;;;;;;;10.82;4.47;;;;;;;;;;5010131;28;20030;-75
2022/03/18 02:26:06;;;;;;;14.43;4.40;;;;;;;;;;5010381;28;20030;-75
2022/03/18 02:28:32;;;;;;;12.90;4.10;;;;;;;;;;5010248;28;20089;-74
2022/03/18 02:30:58;;;;;;;14.32;4.65;;;;;;;;;;5010929;28;20022;-75
2022/03/18 02:33:24;;;;;;;11.65;5.00;;;;;;;;;;5010663;28;20030;-74
2022/03/18 02:35:56;;;;;;;8.60;4.63;;;;;;;;;;5010578;28;20034;-75
2022/03/18 02:38:23;;;;;;;16.58;5.38;;;;;;;;;;5008013;28;20520;-74
2022/03/18 02:40:49;;;;;;;22.02;9.18;;;;;;;;;;5009099;28;20030;-76
2022/03/18 02:43:15;;;;;;;19.67;6.50;;;;;;;;;;5011135;28;20503;-75
2022/03/18 02:45:41;;;;;;;17.63;5.85;;;;;;;;;;5009445;28;20055;-75
2022/03/18 02:48:07;;;;;;;13.35;5.78;;;;;;;;;;5010104;28;20041;-75
2022/03/18 02:50:35;;;;;;;18.52;7.30;;;;;;;;;;5009918;28;20053;-75
2022/03/18 02:53:01;;;;;;;13.65;5.97;;;;;;;;;;5010839;28;20025;-75
2022/03/18 02:55:27;;;;;;;12.57;6.22;;;;;;;;;;5009821;28;20065;-75
2022/03/18 02:57:53;;;;;;;15.73;6.95;;;;;;;;;;5011051;28;20092;-76
2022/03/18 03:00:25;;;;;;;17.15;6.07;;;;;;;;;;5007600;28;20041;-76
2022/03/18 03:02:51;;;;;;;15.80;5.95;;;;;;;;;;5010138;28;20026;-76
2022/03/18 03:08:02;;;;;;;19.48;6.65;;;;;;;;;;5005510;28;20064;-74
2022/03/18 03:10:32;;;;;;;11.38;7.13;;;;;;;;;;5008870;28;20487;-74
2022/03/18 03:12:59;;;;;;;17.75;7.15;;;;;;;;;;5010459;28;20034;-74
2022/03/18 03:15:26;;;;;;;20.45;5.97;;;;;;;;;;5008490;28;20071;-74
2022/03/18 03:17:52;;;;;;;13.27;5.95;;;;;;;;;;5010628;28;20018;-76
2022/03/18 03:20:18;;;;;;;17.63;7.47;;;;;;;;;;5009107;28;20041;-75
2022/03/18 03:22:44;;;;;;;11.77;5.47;;;;;;;;;;5010504;28;20037;-76
2022/03/18 03:25:10;;;;;;;14.07;5.05;;;;;;;;;;5009115;28;20037;-75
2022/03/18 03:27:36;;;;;;;12.55;5.20;;;;;;;;;;5010208;28;20033;-74
2022/03/18 03:30:07;;;;;;;16.45;5.07;;;;;;;;;;5009240;28;20113;-75
2022/03/18 03:32:33;;;;;;;12.38;4.90;;;;;;;;;;5009883;28;20384;-75
2022/03/18 03:34:59;;;;;;;12.02;5.43;;;;;;;;;;5009365;28;20485;-75
2022/03/18 03:37:26;;;;;;;15.60;5.43;;;;;;;;;;5009724;28;20045;-75
2022/03/18 03:39:52;;;;;;;13.57;6.38;;;;;;;;;;5008793;28;20092;-74
2022/03/18 03:42:18;;;;;;;9.95;5.25;;;;;;;;;;4994851;28;20030;-75
2022/03/18 03:44:45;;;;;;;17.55;5.43;;;;;;;;;;4988192;28;20128;-75
2022/03/18 03:47:11;;;;;;;17.92;5.20;;;;;;;;;;5009024;28;20496;-75
2022/03/18 03:49:38;;;;;;;12.93;5.47;;;;;;;;;;4992445;28;20036;-75
2022/03/18 03:52:04;;;;;;;11.85;5.88;;;;;;;;;;5009465;28;20037;-75
2022/03/18 03:54:30;;;;;;;18.05;6.45;;;;;;;;;;5008259;28;20030;-75
2022/03/18 03:56:56;;;;;;;16.83;5.75;;;;;;;;;;5009296;28;20100;-75
2022/03/18 03:59:22;;;;;;;10.73;5.28;;;;;;;;;;5010214;28;20033;-76
2022/03/18 04:01:48;;;;;;;11.70;6.18;;;;;;;;;;5009356;28;20076;-75
2022/03/18 04:04:14;;;;;;;14.88;4.82;;;;;;;;;;5008729;28;20041;-75
2022/03/18 04:06:41;;;;;;;12.38;5.57;;;;;;;;;;5004686;28;20054;-75
2022/03/18 04:09:07;;;;;;;13.45;6.07;;;;;;;;;;5009316;28;20041;-74
2022/03/18 04:11:33;;;;;;;16.33;5.28;;;;;;;;;;5008836;28;20030;-75
2022/03/18 04:13:59;;;;;;;12.15;5.95;;;;;;;;;;5010338;28;20034;-74
2022/03/18 04:16:25;;;;;;;14.88;5.55;;;;;;;;;;5007134;28;20108;-75
2022/03/18 04:18:51;;;;;;;13.57;5.22;;;;;;;;;;5008562;28;20030;-75
2022/03/18 04:21:17;;;;;;;9.77;5.22;;;;;;;;;;5009593;28;20449;-76
2022/03/18 04:23:43;;;;;;;12.25;4.72;;;;;;;;;;4988480;28;20373;-76
2022/03/18 04:26:09;;;;;;;19.20;5.72;;;;;;;;;;5008997;28;20040;-75
2022/03/18 04:28:35;;;;;;;14.45;5.38;;;;;;;;;;5006569;28;20033;-76
2022/03/18 04:31:01;;;;;;;10.70;4.88;;;;;;;;;;5008587;28;20113;-75
2022/03/18 04:33:28;;;;;;;11.95;4.60;;;;;;;;;;5008602;28;20498;-75
2022/03/18 04:35:54;;;;;;;8.35;4.97;;;;;;;;;;5008101;28;20025;-75
2022/03/18 04:38:20;;;;;;;11.30;4.78;;;;;;;;;;5007875;28;20025;-76
2022/03/18 04:40:46;;;;;;;14.25;5.30;;;;;;;;;;5006372;28;20042;-75
2022/03/18 04:43:12;;;;;;;9.88;5.10;;;;;;;;;;5007774;28;20030;-76
2022/03/18 04:45:38;;;;;;;10.05;4.55;;;;;;;;;;5009463;28;20535;-75
2022/03/18 04:48:04;;;;;;;11.75;5.35;;;;;;;;;;4990945;28;20045;-75
2022/03/18 04:50:30;;;;;;;11.13;5.47;;;;;;;;;;5009070;28;20033;-76
2022/03/18 04:52:57;;;;;;;11.98;5.47;;;;;;;;;;5006759;28;20031;-75
2022/03/18 04:55:23;;;;;;;22.65;6.43;;;;;;;;;;5009579;28;20097;-75
2022/03/18 04:57:49;;;;;;;16.88;6.07;;;;;;;;;;4993008;28;20105;-75
2022/03/18 05:00:15;;;;;;;15.10;5.53;;;;;;;;;;5009137;28;20026;-75
2022/03/18 05:02:43;;;;;;;19.40;6.38;;;;;;;;;;5007273;28;20036;-75
2022/03/18 05:05:10;;;;;;;12.20;5.45;;;;;;;;;;5009023;28;20060;-75
2022/03/18 05:07:38;;;;;;;10.25;5.15;;;;;;;;;;5011645;28;20072;-75
2022/03/18 05:10:05;;;;;;;9.10;4.90;;;;;;;;;;5014812;28;20030;-75
2022/03/18 05:12:31;;;;;;;11.07;5.57;;;;;;;;;;5011730;28;20092;-75
2022/03/18 05:14:57;;;;;;;10.55;4.93;;;;;;;;;;5011980;28;20072;-75
2022/03/18 05:17:23;;;;;;;16.63;5.82;;;;;;;;;;5011730;28;20021;-75
2022/03/18 05:19:50;;;;;;;18.35;5.57;;;;;;;;;;5012747;28;20097;-75
2022/03/18 05:22:16;;;;;;;14.38;4.63;;;;;;;;;;5011958;28;20502;-75
2022/03/18 05:24:42;;;;;;;11.25;5.32;;;;;;;;;;5011059;28;20376;-75
2022/03/18 05:27:08;;;;;;;15.45;6.10;;;;;;;;;;4990242;28;20550;-75
2022/03/18 05:29:35;;;;;;;15.13;5.78;;;;;;;;;;5011305;28;20037;-75
2022/03/18 05:32:02;;;;;;;16.40;6.10;;;;;;;;;;5010799;28;20479;-75
2022/03/18 05:34:28;;;;;;;12.77;5.47;;;;;;;;;;5011526;28;20033;-75
2022/03/18 05:36:54;;;;;;;13.20;5.93;;;;;;;;;;5010588;28;20033;-75
2022/03/18 05:39:21;;;;;;;16.92;5.43;;;;;;;;;;5011220;28;20053;-75
2022/03/18 05:41:47;;;;;;;10.60;4.57;;;;;;;;;;5011781;28;20084;-75
2022/03/18 05:44:13;;;;;;;12.40;5.07;;;;;;;;;;5008332;28;20471;-75
2022/03/18 05:46:39;;;;;;;12.52;4.97;;;;;;;;;;5010278;28;20030;-75
2022/03/18 05:49:07;;;;;;;8.90;4.45;;;;;;;;;;5008575;28;20480;-75
2022/03/18 05:51:33;;;;;;;11.60;5.07;;;;;;;;;;5008792;28;20420;-75
2022/03/18 05:53:59;;;;;;;13.80;5.35;;;;;;;;;;5007224;28;20514;-75
2022/03/18 05:59:10;;;;;;;11.15;5.07;;;;;;;;;;5010032;28;20295;-76
2022/03/18 06:01:41;;;;;;;11.80;4.50;;;;;;;;;;5010203;28;20169;-75
2022/03/18 06:04:10;;;;;;;14.98;4.95;;;;;;;;;;5012608;28;20026;-76
2022/03/18 06:06:37;;;;;;;8.80;4.15;;;;;;;;;;5010125;28;20029;-74
2022/03/18 06:11:48;;;;;;;12.65;4.60;;;;;;;;;;5010438;28;20400;-76
2022/03/18 06:14:15;;;;;;;8.45;3.80;;;;;;;;;;5012655;28;20072;-75
2022/03/18 06:16:41;;;;;;;20.67;4.65;;;;;;;;;;5011760;28;20076;-75
2022/03/18 06:19:08;;;;;;;9.80;4.70;;;;;;;;;;5010546;28;20450;-76
2022/03/18 06:21:34;;;;;;;9.82;4.30;;;;;;;;;;5010939;28;20017;-76
2022/03/18 06:24:00;;;;;;;13.80;3.63;;;;;;;;;;5011647;28;20033;-75
2022/03/18 06:26:26;;;;;;;8.32;4.40;;;;;;;;;;5011201;28;20034;-75
2022/03/18 06:28:52;;;;;;;14.27;4.57;;;;;;;;;;5010690;28;20113;-76
2022/03/18 06:31:19;;;;;;;10.10;3.90;;;;;;;;;;5011005;28;20487;-76
2022/03/18 06:33:46;;;;;;;13.05;4.32;;;;;;;;;;5009716;28;20034;-76
2022/03/18 06:36:12;;;;;;;13.43;4.93;;;;;;;;;;5011647;28;20026;-75
2022/03/18 06:38:38;;;;;;;10.82;4.72;;;;;;;;;;5009626;28;20541;-75
2022/03/18 06:41:04;;;;;;;11.73;4.20;;;;;;;;;;5010378;28;20033;-75
2022/03/18 06:43:30;;;;;;;12.48;4.68;;;;;;;;;;4992827;28;20099;-75
2022/03/18 06:45:56;;;;;;;15.40;5.45;;;;;;;;;;5011235;28;20045;-76
2022/03/18 06:48:22;;;;;;;14.27;6.38;;;;;;;;;;5009095;28;20036;-75
2022/03/18 06:50:49;;;;;;;16.48;4.93;;;;;;;;;;5009973;28;20034;-75
2022/03/18 06:53:15;;;;;;;9.00;4.30;;;;;;;;;;5008841;28;20395;-75
2022/03/18 06:55:41;;;;;;;10.25;4.43;;;;;;;;;;5009705;28;20587;-75
2022/03/18 06:58:07;;;;;;;11.57;4.43;;;;;;;;;;5009238;28;20168;-75
2022/03/18 07:00:35;;;;;;;16.02;4.80;;;;;;;;;;4992719;28;20509;-75
2022/03/18 07:03:01;;;;;;;12.27;4.75;;;;;;;;;;5009233;28;20032;-74
2022/03/18 07:05:27;;;;;;;8.43;3.78;;;;;;;;;;5009438;28;20061;-76
2022/03/18 07:07:53;;;;;;;9.48;4.93;;;;;;;;;;5009937;28;20392;-74
2022/03/18 07:10:20;;;;;;;10.75;4.28;;;;;;;;;;5008893;28;20034;-75
2022/03/18 07:12:46;;;;;;;14.18;5.57;;;;;;;;;;5009669;28;20030;-75
2022/03/18 07:15:12;;;;;;;14.10;4.32;;;;;;;;;;5009879;28;20029;-76
2022/03/18 07:20:23;;;;;;;15.85;5.05;;;;;;;;;;5008456;28;20044;-75
2022/03/18 07:22:59;;;;;;;13.18;5.00;;;;;;;;;;5009446;28;20026;-76
2022/03/18 07:25:25;;;;;;;13.32;4.88;;;;;;;;;;5005415;28;20029;-75
2022/03/18 07:27:51;;;;;;;12.40;4.43;;;;;;;;;;5007480;28;20088;-76
2022/03/18 07:30:17;;;;;;;12.70;5.50;;;;;;;;;;5009118;28;20026;-76
2022/03/18 07:32:43;;;;;;;8.70;4.20;;;;;;;;;;5008331;28;20033;-75
2022/03/18 07:35:10;;;;;;;14.05;4.93;;;;;;;;;;5006594;28;20022;-75
2022/03/18 07:37:36;;;;;;;9.75;5.22;;;;;;;;;;5005789;28;20088;-75
2022/03/18 07:40:05;;;;;;;7.93;4.82;;;;;;;;;;5009224;28;20038;-76
2022/03/18 07:42:41;;;;;;;12.55;4.97;;;;;;;;;;5002970;28;20105;-76
2022/03/18 07:45:08;;;;;;;16.08;4.68;;;;;;;;;;5011924;28;20483;-76
2022/03/18 07:47:34;;;;;;;12.18;4.78;;;;;;;;;;5016238;28;20033;-76
2022/03/18 07:50:00;;;;;;;13.55;4.78;;;;;;;;;;5009336;28;20085;-76
2022/03/18 07:52:26;;;;;;;17.10;4.63;;;;;;;;;;5009571;28;20038;-76
2022/03/18 07:54:52;;;;;;;12.82;4.80;;;;;;;;;;5008013;28;20112;-76
2022/03/18 07:57:19;;;;;;;11.88;4.90;;;;;;;;;;5008599;28;20025;-75
2022/03/18 07:59:45;;;;;;;15.95;5.07;;;;;;;;;;5008425;28;20026;-76
2022/03/18 08:02:11;;;;;;;15.88;4.32;;;;;;;;;;5008081;28;20030;-76
2022/03/18 08:04:37;;;;;;;13.85;4.80;;;;;;;;;;5009357;28;20476;-76
2022/03/18 08:07:03;;;;;;;11.55;4.20;;;;;;;;;;5010388;28;20049;-76
2022/03/18 08:09:29;;;;;;;15.75;4.72;;;;;;;;;;5009362;28;20029;-76
2022/03/18 08:11:56;;;;;;;10.88;4.45;;;;;;;;;;5007857;28;20109;-76
2022/03/18 08:14:22;;;;;;;16.23;5.13;;;;;;;;;;5007942;28;20423;-76
2022/03/18 08:16:48;;;;;;;11.55;5.05;;;;;;;;;;4991116;28;20030;-76
2022/03/18 08:19:14;;;;;;;12.65;5.47;;;;;;;;;;4991587;28;20018;-76
2022/03/18 08:21:41;;;;;;;10.07;4.28;;;;;;;;;;5006989;28;20030;-76
2022/03/18 08:24:07;;;;;;;12.88;3.92;;;;;;;;;;5005641;28;20544;-76
2022/03/18 08:26:37;;;;;;;14.75;4.25;;;;;;;;;;5007811;28;20065;-76
2022/03/18 08:29:07;;;;;;;15.25;5.50;;;;;;;;;;5010355;28;20548;-76
2022/03/18 08:31:33;;;;;;;10.88;4.00;;;;;;;;;;5007435;28;20113;-76
2022/03/18 08:34:00;;;;;;;7.65;3.60;;;;;;;;;;5007207;28;20379;-76
2022/03/18 08:36:26;;;;;;;8.30;4.05;;;;;;;;;;5008307;28;20728;-76
2022/03/18 08:38:52;;;;;;;13.13;3.70;;;;;;;;;;5009066;28;20041;-76
2022/03/18 08:41:18;;;;;;;8.95;3.80;;;;;;;;;;5011256;28;20802;-77
2022/03/18 08:43:44;;;;;;;9.52;3.20;;;;;;;;;;5015838;28;20095;-76
2022/03/18 08:46:10;;;;;;;8.57;3.92;;;;;;;;;;4996395;28;20084;-76
2022/03/18 08:48:37;;;;;;;13.93;4.13;;;;;;;;;;5016076;28;20049;-76
2022/03/18 08:51:03;;;;;;;11.27;3.90;;;;;;;;;;5014272;28;20508;-77
2022/03/18 08:53:29;;;;;;;7.97;2.92;;;;;;;;;;5011596;28;20042;-76
2022/03/18 08:55:56;;;;;;;10.75;3.75;;;;;;;;;;5011512;28;20044;-76
2022/03/18 08:58:22;;;;;;;12.30;3.50;;;;;;;;;;5015739;28;20018;-76
2022/03/18 09:00:48;;;;;;;10.00;3.92;;;;;;;;;;5015073;28;20068;-76
2022/03/18 09:03:14;;;;;;;14.68;4.53;;;;;;;;;;5014850;28;20033;-77
2022/03/18 09:05:42;;;;;;;12.57;3.90;;;;;;;;;;5011921;28;20053;-77
2022/03/18 09:08:08;;;;;;;17.08;4.20;;;;;;;;;;5009329;28;20025;-77
2022/03/18 09:10:34;;;;;;;10.18;4.13;;;;;;;;;;5011555;28;20041;-76
2022/03/18 09:13:01;;;;;;;11.65;4.00;;;;;;;;;;4984598;28;20443;-73
2022/03/18 09:15:29;;;;;;;13.95;3.65;;;;;;;;;;5004376;28;20109;-76
2022/03/18 09:17:56;;;;;;;14.88;4.18;;;;;;;;;;5006659;28;20107;-72
2022/03/18 09:20:22;;;;;;;11.77;3.65;;;;;;;;;;5007072;28;20099;-76
2022/03/18 09:22:48;;;;;;;10.05;4.10;;;;;;;;;;5007651;28;20030;-77
2022/03/18 09:25:14;;;;;;;10.38;3.78;;;;;;;;;;4994194;28;20034;-76
2022/03/18 09:27:41;;;;;;;8.23;4.20;;;;;;;;;;5009524;28;20041;-75
2022/03/18 09:30:13;;;;;;;13.35;4.03;;;;;;;;;;5008878;28;20026;-75
2022/03/18 09:32:42;;;;;;;11.52;3.40;;;;;;;;;;5007312;28;20029;-75
2022/03/18 09:35:10;;;;;;;11.70;3.28;;;;;;;;;;5008860;28;20026;-75
2022/03/18 09:37:36;;;;;;;11.15;3.65;;;;;;;;;;5010278;28;20026;-76
2022/03/18 09:40:05;;;;;;;12.55;3.70;;;;;;;;;;5005676;28;20095;-76
2022/03/18 09:42:32;;;;;;;5.97;3.17;;;;;;;;;;5008279;28;20403;-76
2022/03/18 09:44:58;;;;;;;12.32;3.90;;;;;;;;;;4994358;28;20030;-76
2022/03/18 09:47:25;;;;;;;9.77;3.28;;;;;;;;;;4994060;28;20030;-77
2022/03/18 09:49:51;;;;;;;5.22;2.70;;;;;;;;;;5001585;28;20091;-76
2022/03/18 09:52:18;;;;;;;11.60;3.50;;;;;;;;;;5008713;28;20444;-75
2022/03/18 09:54:44;;;;;;;10.55;3.80;;;;;;;;;;5004402;28;20037;-76
2022/03/18 09:57:11;;;;;;;9.65;3.85;;;;;;;;;;5006527;28;20021;-75
2022/03/18 09:59:37;;;;;;;8.90;2.88;;;;;;;;;;4989542;28;20109;-76
2022/03/18 10:02:22;;;;;;;12.32;3.83;;;;;;;;;;4989198;28;20033;-76
2022/03/18 10:04:56;;;;;;;8.67;3.67;;;;;;;;;;5003771;28;20565;-76
2022/03/18 10:07:22;;;;;;;7.88;3.65;;;;;;;;;;4987683;28;20284;-77
2022/03/18 10:09:49;;;;;;;7.55;2.75;;;;;;;;;;5004570;28;20037;-76
2022/03/18 10:12:34;;;;;;;10.20;3.40;;;;;;;;;;5004962;28;20029;-76
2022/03/18 10:15:03;;;;;;;7.57;3.10;;;;;;;;;;5003301;28;20082;-77
2022/03/18 10:17:38;;;;;;;10.88;3.97;;;;;;;;;;5004551;28;20104;-76
2022/03/18 10:20:04;;;;;;;8.35;3.50;;;;;;;;;;5005043;28;20120;-76
2022/03/18 10:22:30;;;;;;;9.82;3.78;;;;;;;;;;5006457;28;20037;-77
2022/03/18 10:24:56;;;;;;;9.55;3.45;;;;;;;;;;5005248;28;20160;-76
2022/03/18 10:27:23;;;;;;;8.45;2.67;;;;;;;;;;5005215;28;20038;-76
2022/03/18 10:29:49;;;;;;;12.05;3.88;;;;;;;;;;5004537;28;20045;-77
2022/03/18 10:32:16;;;;;;;8.40;3.55;;;;;;;;;;5004766;28;20060;-76
2022/03/18 10:37:48;;;;;;;7.40;2.80;;;;;;;;;;5003283;28;20455;-75
2022/03/18 10:40:14;;;;;;;;;;;;;;;;;;5007322;28;20531;-76
2022/03/18 10:42:40;;;;;;;6.22;2.63;;;;;;;;;;4989017;28;19920;-76
2022/03/18 10:45:09;;;;;;;11.48;3.22;;;;;;;;;;5009668;28;20141;-76
2022/03/18 10:47:39;;;;;;;6.65;2.60;;;;;;;;;;5009601;28;20053;-76
2022/03/18 10:50:11;;;;;;;5.90;2.53;;;;;;;;;;5005020;28;20031;-75
2022/03/18 10:52:46;;;;;;;9.18;3.00;;;;;;;;;;5006975;28;20492;-76
2022/03/18 10:55:23;;;;;;;5.68;2.42;;;;;;;;;;5004980;28;20078;-76
2022/03/18 10:57:56;;;;;;;6.82;2.60;;;;;;;;;;5007018;28;20037;-76
2022/03/18 11:00:23;;;;;;;4.80;2.00;;;;;;;;;;5006922;28;20092;-76
2022/03/18 11:02:49;;;;;;;6.97;2.92;;;;;;;;;;5005561;28;20033;-76
2022/03/18 11:05:19;;;;;;;7.70;2.72;;;;;;;;;;5008379;28;20109;-76
2022/03/18 11:07:45;;;;;;;6.68;2.25;;;;;;;;;;5009198;28;20041;-76
2022/03/18 11:13:00;;;;;;;5.82;2.75;;;;;;;;;;5007133;28;20072;-76
2022/03/18 11:15:27;;;;;;;4.15;2.38;;;;;;;;;;5006688;28;20108;-76
2022/03/18 11:17:55;;;;;;;5.45;2.75;;;;;;;;;;5006526;28;20033;-76
2022/03/18 11:20:24;;;;;;;5.28;2.22;;;;;;;;;;5009913;28;20423;-76
2022/03/18 11:22:50;;;;;;;5.90;2.20;;;;;;;;;;5007446;28;20104;-76
2022/03/18 11:25:17;;;;;;;7.70;3.05;;;;;;;;;;5005084;28;20075;-75
2022/03/18 11:27:44;;;;;;;4.15;2.05;;;;;;;;;;4987466;28;20033;-76
2022/03/18 11:30:29;;;;;;;5.57;2.10;;;;;;;;;;5004099;28;20064;-77
2022/03/18 11:33:13;;;;;;;3.05;2.30;;;;;;;;;;5005675;28;20046;-77
2022/03/18 11:35:54;;;;;;;3.78;2.25;;;;;;;;;;5006301;28;20026;-77
2022/03/18 11:38:30;;;;;;;5.88;2.20;;;;;;;;;;4988984;28;20032;-77
2022/03/18 11:41:05;;;;;;;5.13;2.05;;;;;;;;;;4999775;28;20058;-77
2022/03/18 11:43:41;;;;;;;4.43;2.10;;;;;;;;;;5005042;28;20026;-78
2022/03/18 11:46:13;;;;;;;5.95;2.80;;;;;;;;;;5003631;28;20038;-77
2022/03/18 11:48:49;;;;;;;5.80;3.13;;;;;;;;;;5003455;28;20047;-78
2022/03/18 11:51:29;;;;;;;4.78;2.00;;;;;;;;;;4992418;28;20022;-77
2022/03/18 11:54:07;;;;;;;4.35;2.00;;;;;;;;;;5011607;28;20036;-78
2022/03/18 11:56:39;;;;;;;6.07;2.30;;;;;;;;;;5004865;28;20021;-77
2022/03/18 11:59:24;;;;;;;7.45;2.80;;;;;;;;;;5004402;28;20346;-77
2022/03/18 12:02:23;;;;;;;8.38;3.13;;;;;;;;;;5006487;28;20608;-77
2022/03/18 12:04:52;;;;;;;4.50;2.08;;;;;;;;;;4964884;28;20049;-77
2022/03/18 12:07:24;;;;;;;6.88;2.70;;;;;;;;;;5002377;28;20037;-77
2022/03/18 12:10:01;;;;;;;28.85;6.95;;;;;;;;;;5010761;28;20065;-74
2022/03/18 12:12:39;;;;;;;8.70;2.83;;;;;;;;;;5013324;28;20087;-74
2022/03/18 12:15:06;;;;;;;8.32;3.60;;;;;;;;;;5011299;28;20033;-76
2022/03/18 12:17:40;;;;;;;4.25;2.33;;;;;;;;;;5008082;28;20463;-77
2022/03/18 12:20:06;;;;;;;5.60;2.75;;;;;;;;;;5007450;28;20029;-74
2022/03/18 12:22:37;;;;;;;6.35;2.30;;;;;;;;;;4991749;28;20030;-74
2022/03/18 12:25:03;;;;;;;5.63;2.50;;;;;;;;;;5010261;28;20507;-74
2022/03/18 12:27:30;;;;;;;5.32;2.88;;;;;;;;;;5003975;28;20075;-74
2022/03/18 12:30:00;;;;;;;3.33;2.72;;;;;;;;;;4985799;28;20030;-74
2022/03/18 12:32:26;;;;;;;7.47;3.67;;;;;;;;;;5001617;28;20030;-74
2022/03/18 12:34:53;;;;;;;5.47;3.42;;;;;;;;;;5001936;28;20048;-73
2022/03/18 12:37:22;;;;;;;5.97;2.28;;;;;;;;;;4998717;28;20022;-74
2022/03/18 12:40:02;;;;;;;7.22;3.03;;;;;;;;;;5001361;28;20049;-74
2022/03/18 12:42:28;;;;;;;6.70;3.25;;;;;;;;;;5002176;28;20046;-75
2022/03/18 12:45:02;;;;;;;3.83;2.40;;;;;;;;;;5000238;28;20057;-75
2022/03/18 12:47:31;;;;;;;6.90;2.43;;;;;;;;;;4999852;28;20040;-74
2022/03/18 12:49:58;;;;;;;5.60;2.70;;;;;;;;;;4999360;28;20030;-74
2022/03/18 12:52:24;;;;;;;5.35;3.20;;;;;;;;;;5002128;28;20109;-74
2022/03/18 12:55:05;;;;;;;4.63;2.60;;;;;;;;;;5001723;28;20168;-75
2022/03/18 12:57:39;;;;;;;7.47;2.70;;;;;;;;;;5001724;28;20030;-75
2022/03/18 13:00:07;;;;;;;6.05;2.65;;;;;;;;;;5002559;28;20104;-75
2022/03/18 13:02:34;;;;;;;3.55;2.53;;;;;;;;;;4998545;28;20056;-76
2022/03/18 13:05:02;;;;;;;4.20;2.30;;;;;;;;;;4986899;28;20111;-74
2022/03/18 13:07:28;;;;;;;7.15;2.78;;;;;;;;;;4998990;28;20239;-74
2022/03/18 13:09:55;;;;;;;5.68;2.92;;;;;;;;;;5002568;28;20041;-75
2022/03/18 13:12:29;;;;;;;7.93;2.70;;;;;;;;;;5002152;28;20041;-75
2022/03/18 13:14:56;;;;;;;5.00;2.70;;;;;;;;;;4985928;28;20030;-75
2022/03/18 13:17:23;;;;;;;7.25;3.05;;;;;;;;;;4984485;28;20068;-76
2022/03/18 13:19:51;;;;;;;5.95;2.65;;;;;;;;;;5002779;28;20037;-75
2022/03/18 13:22:21;;;;;;;5.45;2.42;;;;;;;;;;5002991;28;20030;-76
2022/03/18 13:24:51;;;;;;;4.78;2.63;;;;;;;;;;5003331;28;20113;-76
2022/03/18 13:27:18;;;;;;;6.63;2.63;;;;;;;;;;5003498;28;20109;-74
2022/03/18 13:35:15;;;;;;;7.57;2.22;;;;;;;;;;5003724;28;20037;-74
2022/03/18 13:37:41;;;;;;;7.93;2.85;;;;;;;;;;5004271;28;20038;-74
2022/03/18 13:40:11;;;;;;;5.18;3.30;;;;;;;;;;4986499;28;20076;-73
2022/03/18 13:42:37;;;;;;;4.07;2.33;;;;;;;;;;5003274;28;20026;-74
2022/03/18 13:45:04;;;;;;;5.70;2.40;;;;;;;;;;5004500;28;20051;-75
2022/03/18 13:47:44;;;;;;;5.65;2.65;;;;;;;;;;5003476;28;20138;-76
2022/03/18 13:50:10;;;;;;;10.95;2.97;;;;;;;;;;5004202;28;20062;-76
2022/03/18 13:52:36;;;;;;;4.10;2.20;;;;;;;;;;5003485;28;20041;-77
2022/03/18 13:55:06;;;;;;;7.40;2.65;;;;;;;;;;5003637;28;20061;-80
2022/03/18 13:57:50;;;;;;;6.85;2.80;;;;;;;;;;5003945;28;20022;-78
2022/03/18 14:00:28;;;;;;;5.40;2.80;;;;;;;;;;5002399;28;20022;-78
2022/03/18 14:03:03;;;;;;;6.00;2.53;;;;;;;;;;5008009;28;20277;-80
2022/03/18 14:05:29;;;;;;;10.57;2.47;;;;;;;;;;5006135;28;20081;-80
2022/03/18 14:07:56;;;;;;;6.38;3.13;;;;;;;;;;5004102;28;20057;-78
2022/03/18 14:10:34;;;;;;;4.50;2.83;;;;;;;;;;5005039;28;20030;-79
2022/03/18 14:13:06;;;;;;;7.00;3.10;;;;;;;;;;5002128;28;20045;-77
2022/03/18 14:15:33;;;;;;;5.90;2.70;;;;;;;;;;5003505;28;20029;-78
2022/03/18 14:18:01;;;;;;;6.90;2.45;;;;;;;;;;5004635;28;20029;-79
2022/03/18 14:20:28;;;;;;;5.70;2.60;;;;;;;;;;4989592;28;20624;-79
2022/03/18 14:22:55;;;;;;;5.00;2.50;;;;;;;;;;5002999;28;20136;-79
2022/03/18 14:25:23;;;;;;;4.38;2.42;;;;;;;;;;5004630;28;20049;-80
2022/03/18 14:27:51;;;;;;;8.50;2.70;;;;;;;;;;5005568;28;20498;-79
2022/03/18 14:30:27;;;;;;;5.57;2.60;;;;;;;;;;5005391;28;20160;-78
2022/03/18 14:32:55;;;;;;;5.00;3.20;;;;;;;;;;5005473;28;20373;-77
2022/03/18 14:35:21;;;;;;;6.85;2.40;;;;;;;;;;5005612;28;20112;-78
2022/03/18 14:37:48;;;;;;;6.15;2.40;;;;;;;;;;5003984;28;20034;-78
2022/03/18 14:40:18;;;;;;;7.13;2.25;;;;;;;;;;5001527;28;20359;-80
2022/03/18 14:42:44;;;;;;;8.48;2.40;;;;;;;;;;5002092;28;20038;-76
2022/03/18 14:45:11;;;;;;;5.75;2.70;;;;;;;;;;5003660;28;20069;-77
2022/03/18 14:47:37;;;;;;;6.40;2.63;;;;;;;;;;5004574;28;20033;-78
2022/03/18 14:50:04;;;;;;;4.60;2.20;;;;;;;;;;4995625;28;20076;-77
2022/03/18 14:52:30;;;;;;;6.65;2.40;;;;;;;;;;5001695;28;20026;-78
2022/03/18 14:57:41;;;;;;;6.00;2.60;;;;;;;;;;5002632;28;20049;-79
2022/03/18 15:00:07;;;;;;;7.25;2.67;;;;;;;;;;5005963;28;20089;-75
2022/03/18 15:02:33;;;;;;;8.32;2.50;;;;;;;;;;5014986;28;20026;-74
2022/03/18 15:05:02;;;;;;;3.80;2.55;;;;;;;;;;5012100;28;20057;-75
2022/03/18 15:07:28;;;;;;;8.10;2.65;;;;;;;;;;5012140;28;20057;-75
2022/03/18 15:09:54;;;;;;;6.78;2.33;;;;;;;;;;5010681;28;20037;-74
2022/03/18 15:12:20;;;;;;;5.10;2.80;;;;;;;;;;5008258;28;20061;-75